Time;durP1;ratioP1;P1;durP2;ratioP2;P2;SDS_P1;SDS_P2;PMS_P1;PMS_P2;Temp;Humidity;BMP_temperature;BMP_pressure;BME280_temperature;BME280_humidity;BME280_pressure;Samples;Min_cycle;Max_cycle;Signal;HPM_P1;HPM_P2
2023/04/25 00:01:04;;;;;;;19.80;3.92;;;6.90;99.90;;;;;;5053832;28;20503;-81
2023/04/25 00:03:31;;;;;;;22.70;3.78;;;7.10;99.90;;;;;;5054024;28;20041;-81
2023/04/25 00:06:01;;;;;;;21.08;4.68;;;6.80;99.90;;;;;;5051663;28;20052;-81
2023/04/25 00:08:27;;;;;;;15.10;3.75;;;6.80;99.90;;;;;;5053403;28;20037;-80
2023/04/25 00:10:53;;;;;;;18.17;4.07;;;6.70;99.90;;;;;;5054025;28;20039;-81
2023/04/25 00:13:19;;;;;;;15.05;3.65;;;6.70;99.90;;;;;;5054203;28;20041;-80
2023/04/25 00:15:47;;;;;;;23.40;4.22;;;6.70;99.90;;;;;;5048573;28;20045;-81
2023/04/25 00:18:13;;;;;;;19.92;3.38;;;6.70;99.90;;;;;;5053227;28;20044;-81
2023/04/25 00:20:39;;;;;;;23.75;5.55;;;6.70;99.90;;;;;;5050298;28;20067;-81
2023/04/25 00:23:05;;;;;;;23.02;4.47;;;6.70;99.90;;;;;;5051221;28;20041;-81
2023/04/25 00:25:30;;;;;;;19.48;4.03;;;6.70;99.90;;;;;;5049525;28;20388;-80
2023/04/25 00:27:56;;;;;;;29.08;3.70;;;6.60;99.90;;;;;;5052844;28;20049;-81
2023/04/25 00:30:21;;;;;;;20.48;3.95;;;6.60;99.90;;;;;;5054070;28;20148;-80
2023/04/25 00:32:47;;;;;;;21.67;4.45;;;6.50;99.90;;;;;;5050808;28;20045;-79
2023/04/25 00:35:12;;;;;;;19.00;3.20;;;6.50;99.90;;;;;;5053470;28;20033;-81
2023/04/25 00:37:38;;;;;;;15.35;3.22;;;6.50;99.90;;;;;;5052237;28;20056;-81
2023/04/25 00:40:06;;;;;;;15.52;3.25;;;6.50;99.90;;;;;;5050445;28;20101;-79
2023/04/25 00:42:31;;;;;;;18.05;4.38;;;6.50;99.90;;;;;;5056169;28;20045;-81
2023/04/25 00:44:59;;;;;;;19.10;3.65;;;6.50;99.90;;;;;;5053359;28;20070;-81
2023/04/25 00:47:25;;;;;;;22.25;2.70;;;6.50;99.90;;;;;;5054188;28;20057;-81
2023/04/25 00:49:53;;;;;;;15.02;4.15;;;6.50;99.90;;;;;;5043676;28;20105;-80
2023/04/25 00:52:19;;;;;;;21.42;4.38;;;6.50;99.90;;;;;;5054953;28;20399;-81
2023/04/25 00:54:45;;;;;;;19.48;3.55;;;6.50;99.90;;;;;;5055352;28;20041;-81
2023/04/25 00:57:10;;;;;;;24.58;4.38;;;6.60;99.90;;;;;;5054096;28;20139;-80
2023/04/25 00:59:37;;;;;;;19.65;4.85;;;6.50;99.90;;;;;;5049734;28;20056;-80
2023/04/25 01:02:04;;;;;;;26.40;3.83;;;6.50;99.90;;;;;;5050669;28;20050;-81
2023/04/25 01:04:30;;;;;;;17.02;3.45;;;6.50;99.90;;;;;;5083514;28;20637;-79
2023/04/25 01:06:56;;;;;;;24.42;3.88;;;6.50;99.90;;;;;;5053668;28;20072;-81
2023/04/25 01:09:23;;;;;;;12.63;3.72;;;6.40;99.90;;;;;;5052059;28;20041;-81
2023/04/25 01:11:49;;;;;;;21.42;4.10;;;6.40;99.90;;;;;;5053646;28;20048;-80
2023/04/25 01:14:15;;;;;;;20.98;4.10;;;6.30;99.90;;;;;;5050895;28;20059;-81
2023/04/25 01:16:41;;;;;;;17.88;3.92;;;6.30;99.90;;;;;;5052533;28;20096;-81
2023/04/25 01:19:13;;;;;;;18.58;3.72;;;6.40;99.90;;;;;;5051687;28;20447;-80
2023/04/25 01:21:39;;;;;;;23.90;3.92;;;6.20;99.90;;;;;;5053534;28;20059;-81
2023/04/25 01:24:06;;;;;;;22.00;3.80;;;6.10;99.90;;;;;;5051217;28;20055;-80
2023/04/25 01:26:32;;;;;;;17.95;3.38;;;6.10;99.90;;;;;;5052125;28;20040;-81
2023/04/25 01:28:58;;;;;;;13.82;3.25;;;6.10;99.90;;;;;;5050487;28;20043;-80
2023/04/25 01:31:24;;;;;;;20.00;4.18;;;6.10;99.90;;;;;;5049348;28;20053;-81
2023/04/25 01:33:49;;;;;;;22.88;4.30;;;6.10;99.90;;;;;;5049666;28;20052;-80
2023/04/25 01:36:15;;;;;;;21.65;3.38;;;6.10;99.90;;;;;;5049847;28;20572;-81
2023/04/25 01:38:41;;;;;;;19.02;4.30;;;6.10;99.90;;;;;;5050096;28;20076;-81
2023/04/25 01:41:07;;;;;;;17.92;3.30;;;6.20;99.90;;;;;;5048866;28;20487;-81
2023/04/25 01:43:32;;;;;;;16.80;3.30;;;6.10;99.90;;;;;;5045350;28;20040;-81
2023/04/25 01:45:59;;;;;;;15.38;3.70;;;6.20;99.90;;;;;;5045714;28;20049;-81
2023/04/25 01:48:24;;;;;;;14.35;3.47;;;6.20;99.90;;;;;;5048078;28;20045;-79
2023/04/25 01:50:50;;;;;;;24.95;5.43;;;6.20;99.90;;;;;;5078858;28;20039;-80
2023/04/25 01:53:16;;;;;;;14.98;3.15;;;6.20;99.90;;;;;;5067010;28;20070;-79
2023/04/25 01:55:42;;;;;;;20.45;4.55;;;6.20;99.90;;;;;;5053404;28;20096;-79
2023/04/25 01:58:09;;;;;;;20.45;3.95;;;6.20;99.90;;;;;;5070462;28;20630;-81
2023/04/25 02:00:38;;;;;;;21.10;3.90;;;6.20;99.90;;;;;;5044535;28;20076;-81
2023/04/25 02:03:04;;;;;;;20.60;3.55;;;6.20;99.90;;;;;;5047179;28;20067;-81
2023/04/25 02:05:35;;;;;;;15.00;3.08;;;6.20;99.90;;;;;;5046514;28;20063;-80
2023/04/25 02:08:01;;;;;;;14.75;3.42;;;6.20;99.90;;;;;;5048628;28;20041;-81
2023/04/25 02:10:27;;;;;;;20.35;3.83;;;6.20;99.90;;;;;;5049862;28;20048;-80
2023/04/25 02:12:52;;;;;;;14.90;3.45;;;6.20;99.90;;;;;;5048831;28;20040;-81
2023/04/25 02:15:18;;;;;;;15.35;3.17;;;6.20;99.90;;;;;;5051274;28;20087;-81
2023/04/25 02:17:44;;;;;;;13.98;2.70;;;6.20;99.90;;;;;;5044697;28;20058;-79
2023/04/25 02:20:11;;;;;;;20.40;4.82;;;6.20;99.90;;;;;;5042431;28;20042;-79
2023/04/25 02:22:36;;;;;;;13.98;2.88;;;6.50;99.90;;;;;;5047857;28;20076;-81
2023/04/25 02:25:04;;;;;;;14.63;3.15;;;6.30;99.90;;;;;;5052015;28;20042;-81
2023/04/25 02:27:30;;;;;;;23.00;3.90;;;6.20;99.90;;;;;;5043552;28;20037;-81
2023/04/25 02:29:55;;;;;;;21.60;3.00;;;6.20;99.90;;;;;;5047165;28;20056;-78
2023/04/25 02:32:21;;;;;;;17.58;2.80;;;6.20;99.90;;;;;;5044689;28;20041;-78
2023/04/25 02:34:47;;;;;;;16.20;2.90;;;6.20;99.90;;;;;;5048045;28;20064;-79
2023/04/25 02:37:14;;;;;;;19.27;3.30;;;6.20;99.90;;;;;;5043820;28;20048;-80
2023/04/25 02:39:39;;;;;;;16.88;3.35;;;6.20;99.90;;;;;;5048948;28;20131;-81
2023/04/25 02:42:05;;;;;;;16.75;3.22;;;6.20;99.90;;;;;;5049323;28;20057;-80
2023/04/25 02:44:30;;;;;;;15.43;2.47;;;6.10;99.90;;;;;;5048119;28;20047;-81
2023/04/25 02:46:56;;;;;;;14.93;2.13;;;6.10;99.90;;;;;;5046824;28;20128;-80
2023/04/25 02:49:21;;;;;;;12.95;2.13;;;6.10;99.90;;;;;;5059625;28;20056;-81
2023/04/25 02:51:47;;;;;;;25.52;2.72;;;6.10;99.90;;;;;;5050179;28;20124;-80
2023/04/25 02:54:13;;;;;;;13.90;2.72;;;6.10;99.90;;;;;;5051452;28;20040;-81
2023/04/25 02:56:38;;;;;;;17.33;2.72;;;6.10;99.90;;;;;;5054569;28;20049;-80
2023/04/25 02:59:04;;;;;;;17.17;3.33;;;6.00;99.90;;;;;;5054870;28;20052;-81
2023/04/25 03:01:29;;;;;;;14.80;2.67;;;6.00;99.90;;;;;;5054372;28;20029;-81
2023/04/25 03:03:55;;;;;;;12.20;2.13;;;6.00;99.90;;;;;;5054102;28;20052;-80
2023/04/25 03:06:20;;;;;;;20.90;3.53;;;6.00;99.90;;;;;;5054481;28;20081;-81
2023/04/25 03:08:46;;;;;;;23.52;3.33;;;6.00;99.90;;;;;;5052685;28;20045;-80
2023/04/25 03:11:11;;;;;;;16.05;2.25;;;6.00;99.90;;;;;;5053394;28;20039;-81
2023/04/25 03:13:37;;;;;;;12.43;2.45;;;6.00;99.90;;;;;;5053244;28;20132;-80
2023/04/25 03:16:03;;;;;;;16.58;2.17;;;5.90;99.90;;;;;;5053022;28;20042;-81
2023/04/25 03:18:28;;;;;;;17.38;2.30;;;5.90;99.90;;;;;;5053071;28;20045;-82
2023/04/25 03:20:54;;;;;;;11.52;1.95;;;6.00;99.90;;;;;;5050941;28;20041;-81
2023/04/25 03:23:20;;;;;;;8.98;1.38;;;5.90;99.90;;;;;;5052181;28;20036;-79
2023/04/25 03:25:45;;;;;;;11.25;1.23;;;5.80;99.90;;;;;;5051098;28;20079;-81
2023/04/25 03:28:11;;;;;;;5.80;1.15;;;5.70;99.90;;;;;;5054154;28;20567;-81
2023/04/25 03:30:36;;;;;;;4.70;1.00;;;5.60;99.90;;;;;;5036185;28;20037;-81
2023/04/25 03:33:02;;;;;;;7.43;1.10;;;5.60;99.90;;;;;;5053259;28;20047;-80
2023/04/25 03:35:27;;;;;;;7.35;1.08;;;5.50;99.90;;;;;;5054925;28;20131;-81
2023/04/25 03:37:53;;;;;;;7.43;1.58;;;5.50;99.90;;;;;;5053600;28;20049;-81
2023/04/25 03:40:18;;;;;;;8.93;2.05;;;5.40;99.90;;;;;;5054755;28;20037;-81
2023/04/25 03:42:44;;;;;;;7.38;1.40;;;5.50;99.90;;;;;;5073208;28;20102;-81
2023/04/25 03:45:10;;;;;;;3.38;0.80;;;5.40;99.90;;;;;;5066457;28;20119;-82
2023/04/25 03:47:35;;;;;;;5.07;1.02;;;5.40;99.90;;;;;;5053189;28;20525;-79
2023/04/25 03:50:02;;;;;;;3.92;1.05;;;5.40;99.90;;;;;;5053561;28;20056;-80
2023/04/25 03:52:28;;;;;;;8.02;1.30;;;5.40;99.90;;;;;;5055587;28;20575;-81
2023/04/25 03:54:53;;;;;;;7.32;0.77;;;5.40;99.90;;;;;;5086024;28;20044;-81
2023/04/25 03:57:19;;;;;;;8.65;0.90;;;5.40;99.90;;;;;;5071817;28;20060;-81
2023/04/25 03:59:44;;;;;;;5.45;0.88;;;5.40;99.90;;;;;;5054765;28;20103;-81
2023/04/25 04:02:10;;;;;;;7.60;0.77;;;5.40;99.90;;;;;;5056115;28;20044;-81
2023/04/25 04:04:36;;;;;;;9.27;1.52;;;5.40;99.90;;;;;;5051426;28;20056;-81
2023/04/25 04:07:01;;;;;;;9.18;2.10;;;5.40;99.90;;;;;;5050273;28;20040;-79
2023/04/25 04:09:27;;;;;;;8.77;1.55;;;5.30;99.90;;;;;;5049813;28;20052;-80
2023/04/25 04:11:53;;;;;;;10.95;1.77;;;5.40;99.90;;;;;;5048389;28;20043;-81
2023/04/25 04:14:18;;;;;;;7.75;1.20;;;5.30;99.90;;;;;;5048376;28;20480;-80
2023/04/25 04:16:44;;;;;;;6.63;1.10;;;5.30;99.90;;;;;;5050337;28;20411;-80
2023/04/25 04:19:10;;;;;;;7.68;0.98;;;5.30;99.90;;;;;;5051987;28;20044;-80
2023/04/25 04:21:36;;;;;;;6.15;1.10;;;5.40;99.90;;;;;;5049894;28;20037;-81
2023/04/25 04:24:01;;;;;;;5.55;1.17;;;5.40;99.90;;;;;;5048981;28;20105;-81
2023/04/25 04:26:27;;;;;;;9.63;1.17;;;5.50;99.90;;;;;;5049664;28;20049;-81
2023/04/25 04:28:54;;;;;;;10.98;1.77;;;5.30;99.90;;;;;;5045162;28;20119;-80
2023/04/25 04:31:23;;;;;;;9.07;1.17;;;5.40;99.90;;;;;;5044564;28;20044;-81
2023/04/25 04:33:49;;;;;;;5.97;0.93;;;5.40;99.90;;;;;;5045197;28;20045;-79
2023/04/25 04:36:15;;;;;;;6.03;1.40;;;5.50;99.90;;;;;;5049771;28;20518;-80
2023/04/25 04:38:42;;;;;;;7.22;2.00;;;5.50;99.90;;;;;;5045663;28;20041;-80
2023/04/25 04:41:08;;;;;;;7.38;1.20;;;5.50;99.90;;;;;;5046589;28;20049;-80
2023/04/25 04:43:33;;;;;;;5.93;1.30;;;5.60;99.90;;;;;;5045402;28;20051;-80
2023/04/25 04:46:00;;;;;;;16.23;2.22;;;5.60;99.90;;;;;;5049331;28;20056;-80
2023/04/25 04:48:26;;;;;;;10.60;1.48;;;5.50;99.90;;;;;;5053370;28;20353;-80
2023/04/25 04:51:00;;;;;;;7.43;1.20;;;5.50;99.90;;;;;;5080490;28;20040;-82
2023/04/25 04:53:25;;;;;;;7.70;1.27;;;5.50;99.90;;;;;;5045989;28;20037;-81
2023/04/25 04:55:57;;;;;;;8.32;1.27;;;5.50;99.90;;;;;;5049414;28;20385;-81
2023/04/25 04:58:23;;;;;;;8.05;1.20;;;5.50;99.90;;;;;;5048972;28;20029;-81
2023/04/25 05:00:48;;;;;;;12.90;1.58;;;5.70;99.90;;;;;;5035239;28;20046;-82
2023/04/25 05:03:14;;;;;;;11.02;1.40;;;5.90;99.90;;;;;;5045068;28;20041;-82
2023/04/25 05:05:47;;;;;;;7.57;1.58;;;6.50;99.90;;;;;;5029077;28;20122;-82
2023/04/25 05:08:13;;;;;;;8.98;1.65;;;7.20;99.90;;;;;;5025490;28;20064;-82
2023/04/25 05:10:39;;;;;;;8.18;1.25;;;7.90;99.90;;;;;;5042457;28;20068;-82
2023/04/25 05:13:04;;;;;;;9.25;1.33;;;8.50;99.90;;;;;;5040880;28;20041;-82
2023/04/25 05:15:30;;;;;;;11.55;2.33;;;9.40;99.90;;;;;;5044517;28;20045;-82
2023/04/25 05:17:55;;;;;;;9.43;2.05;;;10.30;99.90;;;;;;5046345;28;20041;-79
2023/04/25 05:20:21;;;;;;;9.88;2.13;;;11.40;99.90;;;;;;5048342;28;20052;-79
2023/04/25 05:22:46;;;;;;;9.23;1.63;;;12.30;99.90;;;;;;5046440;28;20128;-79
2023/04/25 05:25:12;;;;;;;10.63;1.48;;;13.00;99.90;;;;;;5046128;28;20037;-79
2023/04/25 05:27:38;;;;;;;6.32;1.48;;;13.90;99.90;;;;;;5079496;28;20045;-80
2023/04/25 05:30:05;;;;;;;6.25;2.00;;;14.70;99.90;;;;;;5043000;28;20064;-80
2023/04/25 05:32:30;;;;;;;5.93;1.60;;;15.20;99.90;;;;;;5046196;28;20108;-81
2023/04/25 05:34:56;;;;;;;8.13;1.30;;;15.20;99.90;;;;;;5045973;28;20590;-80
2023/04/25 05:37:21;;;;;;;6.15;1.50;;;14.60;99.90;;;;;;5076804;28;20044;-80
2023/04/25 05:39:47;;;;;;;10.88;1.58;;;14.00;99.90;;;;;;5032260;28;20040;-81
2023/04/25 05:42:13;;;;;;;6.75;1.30;;;13.10;99.90;;;;;;5039116;28;20048;-81
2023/04/25 05:44:38;;;;;;;8.07;1.33;;;12.20;99.90;;;;;;5051233;28;20041;-81
2023/04/25 05:47:04;;;;;;;9.40;1.75;;;11.50;99.90;;;;;;5043836;28;20061;-81
2023/04/25 05:49:30;;;;;;;10.23;2.35;;;11.00;99.90;;;;;;5043424;28;20033;-80
2023/04/25 05:51:56;;;;;;;8.25;1.10;;;10.30;99.90;;;;;;5041515;28;20180;-80
2023/04/25 05:54:21;;;;;;;7.95;1.70;;;9.90;99.90;;;;;;5042009;28;20037;-80
2023/04/25 05:56:47;;;;;;;8.52;1.38;;;9.70;99.90;;;;;;5055688;28;20056;-80
2023/04/25 05:59:12;;;;;;;8.80;2.03;;;9.30;99.90;;;;;;5041244;28;20051;-80
2023/04/25 06:01:38;;;;;;;9.07;1.60;;;9.10;99.90;;;;;;5046027;28;20044;-79
2023/04/25 06:04:03;;;;;;;10.55;1.65;;;8.80;99.90;;;;;;5044308;28;20144;-80
2023/04/25 06:06:30;;;;;;;10.00;1.67;;;8.70;99.90;;;;;;5042167;28;20522;-80
2023/04/25 06:08:55;;;;;;;11.48;1.73;;;8.60;99.90;;;;;;5044018;28;20056;-80
2023/04/25 06:11:21;;;;;;;8.23;1.67;;;8.50;99.90;;;;;;5046437;28;20097;-79
2023/04/25 06:13:46;;;;;;;8.80;1.48;;;8.50;99.90;;;;;;5046474;28;20041;-79
2023/04/25 06:16:12;;;;;;;12.93;1.55;;;8.40;99.90;;;;;;5043089;28;20079;-79
2023/04/25 06:18:37;;;;;;;7.47;1.23;;;8.40;99.90;;;;;;5045599;28;20484;-80
2023/04/25 06:21:03;;;;;;;6.50;1.20;;;8.30;99.90;;;;;;5046477;28;20423;-79
2023/04/25 06:23:29;;;;;;;10.43;1.55;;;8.30;99.90;;;;;;5045095;28;20044;-80
2023/04/25 06:25:54;;;;;;;7.68;1.67;;;8.40;99.90;;;;;;5078014;28;20044;-79
2023/04/25 06:28:21;;;;;;;7.55;1.40;;;8.40;99.90;;;;;;5043979;28;20040;-80
2023/04/25 06:30:48;;;;;;;10.02;1.52;;;9.10;99.90;;;;;;5045372;28;20064;-79
2023/04/25 06:33:13;;;;;;;5.82;1.23;;;10.60;99.90;;;;;;5046517;28;20552;-79
2023/04/25 06:35:39;;;;;;;8.00;1.95;;;12.00;99.90;;;;;;5046112;28;20044;-82
2023/04/25 06:38:04;;;;;;;7.25;1.35;;;12.70;99.90;;;;;;5035009;28;20042;-80
2023/04/25 06:40:30;;;;;;;6.60;1.38;;;13.20;99.90;;;;;;5046234;28;20048;-77
2023/04/25 06:42:56;;;;;;;8.27;1.88;;;13.60;99.90;;;;;;5041134;28;20056;-81
2023/04/25 06:45:21;;;;;;;5.57;1.27;;;13.50;99.90;;;;;;5042838;28;20082;-81
2023/04/25 06:47:47;;;;;;;7.60;2.03;;;13.40;99.90;;;;;;5040171;28;20056;-81
2023/04/25 06:50:14;;;;;;;5.45;1.17;;;12.60;99.90;;;;;;5040012;28;20040;-81
2023/04/25 06:52:39;;;;;;;9.48;1.83;;;12.00;99.90;;;;;;5018591;28;20186;-81
2023/04/25 06:55:05;;;;;;;6.93;1.63;;;11.60;99.90;;;;;;5040135;28;20179;-81
2023/04/25 06:57:31;;;;;;;8.23;1.48;;;11.30;99.90;;;;;;5056069;28;20144;-81
2023/04/25 06:59:57;;;;;;;11.43;2.17;;;11.20;99.90;;;;;;5043835;28;20036;-81
2023/04/25 07:06:48;;;;;;;8.48;1.95;;;11.70;99.90;;;;;;5015958;28;20616;-81
2023/04/25 07:20:45;;;;;;;9.95;1.55;;;11.30;99.90;;;;;;4997993;28;21560;-82
2023/04/25 07:23:11;;;;;;;5.07;0.93;;;11.50;99.90;;;;;;4984664;28;20124;-83
2023/04/25 07:26:02;;;;;;;4.82;0.77;;;11.40;99.90;;;;;;5019126;28;20542;-83
2023/04/25 07:28:49;;;;;;;4.32;1.00;;;11.30;99.90;;;;;;5057579;28;20071;-83
2023/04/25 07:31:17;;;;;;;5.80;0.70;;;11.50;99.90;;;;;;5028965;28;20076;-83
2023/04/25 07:33:55;;;;;;;6.68;0.73;;;11.90;99.90;;;;;;5058345;28;20080;-81
2023/04/25 07:52:45;;;;;;;2.28;0.50;;;12.40;99.90;;;;;;4969197;28;20046;-80
2023/04/25 07:56:01;;;;;;;3.05;0.75;;;12.10;99.90;;;;;;4870454;29;20056;-82
2023/04/25 07:58:26;;;;;;;9.15;0.75;;;12.10;99.90;;;;;;4929066;28;20051;-81
2023/04/25 08:00:52;;;;;;;4.75;0.70;;;11.30;99.90;;;;;;4974556;28;20555;-80
2023/04/25 08:03:18;;;;;;;4.28;0.80;;;11.20;99.90;;;;;;5070562;28;20076;-81
2023/04/25 08:05:43;;;;;;;3.50;0.85;;;10.70;99.90;;;;;;5048415;28;20045;-80
2023/04/25 08:08:09;;;;;;;5.53;0.85;;;10.40;99.90;;;;;;5031675;28;20132;-80
2023/04/25 08:10:35;;;;;;;7.35;1.10;;;10.20;99.90;;;;;;5045892;28;20043;-79
2023/04/25 08:13:00;;;;;;;5.63;0.80;;;10.60;99.90;;;;;;5046539;28;20044;-80
2023/04/25 08:15:26;;;;;;;6.03;1.90;;;10.80;99.90;;;;;;5063623;28;20033;-81
2023/04/25 08:17:52;;;;;;;6.25;0.80;;;11.20;99.90;;;;;;5045477;28;20459;-82
2023/04/25 08:20:18;;;;;;;8.80;1.10;;;11.60;99.90;;;;;;5045385;28;20041;-80
2023/04/25 08:22:43;;;;;;;6.93;1.23;;;12.10;99.90;;;;;;5046340;28;20041;-80
2023/04/25 08:25:09;;;;;;;7.70;1.20;;;12.00;99.90;;;;;;5031663;28;20056;-79
2023/04/25 08:27:34;;;;;;;10.40;2.28;;;12.20;99.90;;;;;;5041459;28;20446;-79
2023/04/25 08:30:02;;;;;;;6.70;0.93;;;12.80;99.90;;;;;;5025781;28;20041;-79
2023/04/25 08:32:28;;;;;;;6.45;1.23;;;12.90;99.90;;;;;;5044900;28;20609;-79
2023/04/25 08:34:55;;;;;;;5.03;0.77;;;12.80;99.90;;;;;;5041211;28;20053;-78
2023/04/25 08:37:21;;;;;;;7.05;1.02;;;13.10;99.90;;;;;;5046655;28;20146;-79
2023/04/25 08:39:48;;;;;;;3.25;1.20;;;13.20;99.90;;;;;;5042454;28;20062;-78
2023/04/25 08:42:14;;;;;;;4.55;0.73;;;13.90;99.90;;;;;;5043035;28;20044;-80
2023/04/25 08:44:40;;;;;;;7.93;0.70;;;13.60;99.90;;;;;;5041205;28;20082;-80
2023/04/25 08:47:06;;;;;;;7.85;1.10;;;13.80;99.90;;;;;;5041810;28;20048;-80
2023/04/25 08:49:32;;;;;;;7.72;1.25;;;14.20;99.90;;;;;;5043377;28;20045;-79
2023/04/25 08:52:01;;;;;;;8.30;1.02;;;14.10;99.90;;;;;;5040950;28;20546;-78
2023/04/25 08:54:28;;;;;;;10.93;2.05;;;13.50;99.90;;;;;;5041439;28;20037;-78
2023/04/25 08:57:04;;;;;;;9.13;1.45;;;13.40;99.90;;;;;;5039427;28;20037;-80
2023/04/25 08:59:49;;;;;;;7.38;1.35;;;13.30;99.90;;;;;;5043084;28;20621;-82
2023/04/25 09:02:18;;;;;;;6.05;1.10;;;13.50;99.90;;;;;;5043503;28;20045;-79
2023/04/25 09:05:31;;;;;;;6.32;1.00;;;13.30;99.90;;;;;;5042884;28;20140;-83
2023/04/25 09:08:17;;;;;;;6.13;1.60;;;12.90;99.90;;;;;;5044431;28;20099;-81
2023/04/25 09:10:43;;;;;;;5.53;1.00;;;12.40;99.90;;;;;;5031681;28;20045;-79
2023/04/25 09:13:14;;;;;;;3.28;0.40;;;11.80;99.90;;;;;;5027427;28;20053;-79
2023/04/25 09:15:52;;;;;;;1.90;0.52;;;11.20;99.90;;;;;;5073911;28;20036;-80
2023/04/25 09:18:33;;;;;;;5.70;1.08;;;10.80;99.90;;;;;;5041580;28;20483;-79
2023/04/25 09:21:20;;;;;;;3.90;0.52;;;10.30;99.90;;;;;;5012235;28;20037;-79
2023/04/25 09:23:51;;;;;;;4.25;0.52;;;10.10;99.90;;;;;;5029264;28;20123;-79
2023/04/25 09:26:20;;;;;;;4.53;0.50;;;9.90;99.90;;;;;;5043351;28;20060;-79
2023/04/25 09:28:51;;;;;;;7.03;1.40;;;10.00;99.90;;;;;;5027600;28;20050;-79
2023/04/25 09:31:30;;;;;;;3.85;0.60;;;10.30;99.90;;;;;;5043241;28;20969;-79
2023/04/25 09:34:36;;;;;;;3.25;0.45;;;10.60;99.90;;;;;;5025373;28;20115;-79
2023/04/25 09:37:34;;;;;;;4.47;0.60;;;11.10;99.90;;;;;;5026239;28;20041;-79
2023/04/25 09:40:57;;;;;;;4.72;0.60;;;11.40;99.90;;;;;;5062621;28;20052;-80
2023/04/25 09:47:46;;;;;;;7.05;0.98;;;12.30;99.90;;;;;;5034481;28;20075;-79
2023/04/25 09:50:39;;;;;;;7.30;1.00;;;12.80;99.90;;;;;;5041472;28;20134;-80
2023/04/25 09:53:59;;;;;;;3.55;1.50;;;12.70;99.90;;;;;;4970813;28;20046;-80
2023/04/25 09:56:38;;;;;;;2.78;0.50;;;12.20;99.90;;;;;;4953388;28;20042;-80
2023/04/25 09:59:44;;;;;;;3.13;0.77;;;11.30;99.90;;;;;;4927506;28;20046;-80
2023/04/25 10:02:11;;;;;;;1.77;0.55;;;10.70;99.90;;;;;;4969213;28;20050;-80
2023/04/25 10:04:38;;;;;;;3.53;0.40;;;10.20;99.90;;;;;;5000847;28;20199;-80
2023/04/25 10:07:06;;;;;;;2.70;0.70;;;9.90;99.90;;;;;;5040328;28;20071;-79
2023/04/25 10:09:33;;;;;;;7.90;0.70;;;9.80;99.90;;;;;;5040791;28;20048;-80
2023/04/25 10:11:59;;;;;;;5.88;0.70;;;9.70;99.90;;;;;;5041518;28;20046;-80
2023/04/25 10:14:26;;;;;;;2.15;0.63;;;10.00;99.90;;;;;;5056882;28;20041;-81
2023/04/25 10:16:53;;;;;;;3.53;0.70;;;10.40;99.90;;;;;;5043414;28;20048;-80
2023/04/25 10:19:20;;;;;;;5.35;0.60;;;10.80;99.90;;;;;;5056795;28;20045;-80
2023/04/25 10:21:56;;;;;;;8.15;1.10;;;11.20;99.90;;;;;;5037059;28;20056;-80
2023/04/25 10:24:24;;;;;;;6.35;1.15;;;11.70;99.90;;;;;;5043680;28;20045;-80
2023/04/25 10:26:50;;;;;;;4.60;0.75;;;12.00;99.90;;;;;;5043761;28;20052;-80
2023/04/25 10:29:24;;;;;;;4.55;1.00;;;12.40;99.90;;;;;;5039825;28;20052;-81
2023/04/25 10:31:50;;;;;;;5.78;1.02;;;12.80;99.90;;;;;;5040457;28;20041;-80
2023/04/25 10:34:19;;;;;;;3.45;0.63;;;12.90;99.90;;;;;;5041425;28;20052;-81
2023/04/25 10:41:10;;;;;;;3.53;0.77;;;12.60;99.90;;;;;;5040690;28;20032;-81
2023/04/25 10:45:22;;;;;;;5.13;1.05;;;12.00;99.90;;;;;;5028518;28;20048;-80
2023/04/25 10:49:17;;;;;;;6.65;0.95;;;11.50;99.90;;;;;;5016640;28;20071;-80
2023/04/25 10:52:32;;;;;;;8.80;1.27;;;11.90;99.90;;;;;;4986727;28;20613;-82
2023/04/25 10:54:58;;;;;;;6.65;1.05;;;12.30;99.90;;;;;;4980610;28;20053;-82
2023/04/25 10:57:37;;;;;;;7.32;1.17;;;12.50;99.90;;;;;;5040046;28;20133;-82
2023/04/25 11:00:12;;;;;;;5.38;1.50;;;12.90;99.90;;;;;;5044467;28;20432;-82
2023/04/25 11:02:46;;;;;;;3.90;0.90;;;12.80;99.90;;;;;;5040203;28;20488;-82
2023/04/25 11:05:21;;;;;;;6.25;1.35;;;12.60;99.90;;;;;;5041958;28;20120;-82
2023/04/25 11:07:52;;;;;;;9.90;2.28;;;12.40;99.90;;;;;;5044780;28;20049;-82
2023/04/25 11:10:19;;;;;;;3.25;0.65;;;11.90;99.90;;;;;;5046144;28;20048;-82
2023/04/25 11:12:46;;;;;;;6.25;0.85;;;12.00;99.90;;;;;;5032681;28;20037;-82
2023/04/25 11:15:12;;;;;;;6.68;1.00;;;12.10;99.90;;;;;;5083623;28;20036;-81
2023/04/25 11:17:40;;;;;;;4.95;0.70;;;12.00;99.90;;;;;;5047234;28;20510;-83
2023/04/25 11:20:08;;;;;;;4.57;0.65;;;11.90;99.90;;;;;;5082209;28;20056;-82
2023/04/25 11:22:34;;;;;;;6.10;0.75;;;12.00;99.90;;;;;;5050035;28;20644;-81
2023/04/25 11:25:05;;;;;;;2.80;0.90;;;12.20;99.90;;;;;;5050614;28;20114;-82
2023/04/25 11:27:31;;;;;;;3.65;0.50;;;12.50;99.90;;;;;;5047009;28;20048;-82
2023/04/25 11:29:56;;;;;;;5.03;0.75;;;12.80;99.90;;;;;;5048360;28;20063;-84
2023/04/25 11:32:23;;;;;;;6.85;0.65;;;12.90;99.90;;;;;;5028729;28;20083;-82
2023/04/25 11:34:49;;;;;;;4.22;0.70;;;12.90;99.90;;;;;;5046957;28;20438;-81
2023/04/25 11:37:14;;;;;;;3.10;0.63;;;12.80;99.90;;;;;;5062966;28;20049;-81
2023/04/25 11:39:45;;;;;;;4.35;0.60;;;12.50;99.90;;;;;;5042633;28;20095;-81
2023/04/25 11:42:11;;;;;;;8.20;0.52;;;12.10;99.90;;;;;;5043814;28;20408;-82
2023/04/25 11:44:39;;;;;;;4.60;0.65;;;11.80;99.90;;;;;;5045834;28;20045;-80
2023/04/25 11:47:05;;;;;;;6.18;1.42;;;11.80;99.90;;;;;;5080493;28;20119;-83
2023/04/25 11:49:32;;;;;;;4.35;0.68;;;11.90;99.90;;;;;;5059931;28;20499;-82
2023/04/25 11:51:58;;;;;;;5.25;1.13;;;12.10;99.90;;;;;;5043341;28;20045;-81
2023/04/25 11:54:23;;;;;;;4.22;1.33;;;11.90;99.90;;;;;;5045544;28;20052;-83
2023/04/25 11:56:49;;;;;;;6.10;0.73;;;11.60;99.90;;;;;;5079083;28;20864;-82
2023/04/25 11:59:16;;;;;;;4.57;0.80;;;11.30;99.90;;;;;;5059030;28;20487;-82
2023/04/25 12:01:49;;;;;;;8.73;1.13;;;11.10;99.90;;;;;;5077059;28;20045;-82
2023/04/25 12:04:20;;;;;;;3.70;0.70;;;11.10;99.90;;;;;;5045805;28;20086;-82
2023/04/25 12:06:48;;;;;;;3.75;0.60;;;11.20;99.90;;;;;;5043565;28;20049;-82
2023/04/25 12:09:15;;;;;;;5.05;0.50;;;11.20;99.90;;;;;;5045730;28;20045;-81
2023/04/25 12:11:43;;;;;;;4.43;0.65;;;11.00;99.90;;;;;;5045467;28;20503;-81
2023/04/25 12:14:09;;;;;;;8.05;1.50;;;10.80;99.90;;;;;;5047055;28;20507;-82
2023/04/25 12:16:46;;;;;;;4.15;0.70;;;10.60;99.90;;;;;;5042621;28;20049;-82
2023/04/25 12:19:16;;;;;;;6.97;0.85;;;10.30;99.90;;;;;;5049363;28;20372;-81
2023/04/25 12:21:43;;;;;;;8.50;0.63;;;10.10;99.90;;;;;;5047160;28;20048;-81
2023/04/25 12:24:14;;;;;;;10.57;1.17;;;10.30;99.90;;;;;;5042287;28;20061;-82
2023/04/25 12:26:50;;;;;;;6.75;1.60;;;10.70;99.90;;;;;;5057338;28;20041;-82
2023/04/25 12:29:34;;;;;;;6.55;0.82;;;11.10;99.90;;;;;;5048019;28;20051;-82
2023/04/25 12:32:03;;;;;;;11.27;1.30;;;11.30;99.90;;;;;;5045576;28;20399;-81
2023/04/25 12:34:29;;;;;;;6.88;1.65;;;11.20;99.90;;;;;;5062223;28;20034;-82
2023/04/25 12:36:54;;;;;;;5.65;0.93;;;10.80;99.90;;;;;;5046154;28;20048;-82
2023/04/25 12:39:22;;;;;;;9.18;0.90;;;10.40;99.90;;;;;;5048893;28;20040;-82
2023/04/25 12:41:49;;;;;;;7.25;0.82;;;10.20;99.90;;;;;;5080873;28;20041;-81
2023/04/25 12:44:15;;;;;;;4.63;0.90;;;10.10;99.90;;;;;;5082529;28;20072;-81
2023/04/25 12:46:40;;;;;;;6.22;1.13;;;10.20;99.90;;;;;;5045904;28;20112;-82
2023/04/25 12:49:08;;;;;;;9.27;1.20;;;10.60;99.90;;;;;;5044889;28;20052;-82
2023/04/25 12:51:37;;;;;;;4.63;0.77;;;10.90;99.90;;;;;;5015926;28;20523;-82
2023/04/25 12:54:05;;;;;;;6.88;0.75;;;11.10;99.90;;;;;;5048479;28;20033;-82
2023/04/25 12:56:31;;;;;;;3.88;0.70;;;11.20;99.90;;;;;;5048237;28;20041;-82
2023/04/25 12:58:57;;;;;;;4.03;0.85;;;11.10;99.90;;;;;;5045445;28;20036;-81
2023/04/25 13:01:23;;;;;;;7.63;1.15;;;10.90;99.90;;;;;;5047413;28;20090;-81
2023/04/25 13:03:49;;;;;;;7.38;0.68;;;10.80;99.90;;;;;;5047342;28;20037;-82
2023/04/25 13:06:16;;;;;;;4.95;0.88;;;10.80;99.90;;;;;;5046931;28;20052;-81
2023/04/25 13:08:42;;;;;;;3.83;0.88;;;10.90;99.90;;;;;;5044570;28;20044;-81
2023/04/25 13:11:08;;;;;;;4.50;1.33;;;11.00;99.90;;;;;;5077593;28;20044;-81
2023/04/25 13:13:34;;;;;;;6.78;0.90;;;11.00;99.90;;;;;;5046807;28;20182;-82
2023/04/25 13:16:07;;;;;;;8.25;1.10;;;11.10;99.90;;;;;;5047470;28;20045;-82
2023/04/25 13:18:33;;;;;;;3.80;0.60;;;11.30;99.90;;;;;;5043623;28;20115;-82
2023/04/25 13:20:59;;;;;;;8.00;1.08;;;11.40;99.90;;;;;;5045255;28;20037;-82
2023/04/25 13:23:26;;;;;;;6.68;1.83;;;11.50;99.90;;;;;;5043004;28;20044;-81
2023/04/25 13:25:52;;;;;;;3.90;0.90;;;11.50;99.90;;;;;;5057601;28;20064;-82
2023/04/25 13:28:18;;;;;;;4.75;1.10;;;11.30;99.90;;;;;;5063813;28;20479;-83
2023/04/25 13:30:44;;;;;;;5.07;0.93;;;11.00;99.90;;;;;;5041349;28;20048;-82
2023/04/25 13:33:10;;;;;;;7.57;1.05;;;11.00;99.90;;;;;;5028488;28;20041;-81
2023/04/25 13:35:37;;;;;;;6.60;0.77;;;11.00;99.90;;;;;;5039215;28;20402;-82
2023/04/25 13:38:04;;;;;;;6.40;1.13;;;11.10;99.90;;;;;;5070713;28;20526;-82